sensor_id;sensor_type;location;lat;lon;timestamp;P1;durP1;ratioP1;P2;durP2;ratioP2
8060;SDS011;4073;42.626;25.386;2023-06-10T00:01:26;8.17;;;6.10;;
8060;SDS011;4073;42.626;25.386;2023-06-10T00:03:52;7.73;;;5.83;;
8060;SDS011;4073;42.626;25.386;2023-06-10T00:06:18;7.93;;;6.50;;
8060;SDS011;4073;42.626;25.386;2023-06-10T00:08:43;9.80;;;7.20;;
8060;SDS011;4073;42.626;25.386;2023-06-10T00:11:09;10.67;;;7.03;;
8060;SDS011;4073;42.626;25.386;2023-06-10T00:13:35;10.37;;;6.37;;
8060;SDS011;4073;42.626;25.386;2023-06-10T00:16:02;9.63;;;6.67;;
8060;SDS011;4073;42.626;25.386;2023-06-10T00:18:28;7.43;;;6.53;;
8060;SDS011;4073;42.626;25.386;2023-06-10T00:20:56;8.70;;;6.87;;
8060;SDS011;4073;42.626;25.386;2023-06-10T00:23:28;11.00;;;6.97;;
8060;SDS011;4073;42.626;25.386;2023-06-10T00:25:54;12.30;;;8.43;;
8060;SDS011;4073;42.626;25.386;2023-06-10T00:28:19;9.27;;;7.17;;
8060;SDS011;4073;42.626;25.386;2023-06-10T00:30:45;8.77;;;7.43;;
8060;SDS011;4073;42.626;25.386;2023-06-10T00:33:10;11.20;;;6.57;;
8060;SDS011;4073;42.626;25.386;2023-06-10T00:35:36;7.70;;;6.77;;
8060;SDS011;4073;42.626;25.386;2023-06-10T00:38:01;9.77;;;5.97;;
8060;SDS011;4073;42.626;25.386;2023-06-10T00:40:26;6.73;;;5.60;;
8060;SDS011;4073;42.626;25.386;2023-06-10T00:42:52;8.53;;;5.97;;
8060;SDS011;4073;42.626;25.386;2023-06-10T00:45:17;7.77;;;6.10;;
8060;SDS011;4073;42.626;25.386;2023-06-10T00:47:43;9.00;;;6.90;;
8060;SDS011;4073;42.626;25.386;2023-06-10T00:50:09;8.10;;;7.13;;
8060;SDS011;4073;42.626;25.386;2023-06-10T00:52:34;8.97;;;7.13;;
8060;SDS011;4073;42.626;25.386;2023-06-10T00:55:00;8.47;;;7.40;;
8060;SDS011;4073;42.626;25.386;2023-06-10T00:57:26;8.70;;;7.63;;
8060;SDS011;4073;42.626;25.386;2023-06-10T00:59:51;10.60;;;8.17;;
8060;SDS011;4073;42.626;25.386;2023-06-10T01:02:17;8.00;;;7.17;;
8060;SDS011;4073;42.626;25.386;2023-06-10T01:04:42;8.53;;;7.47;;
8060;SDS011;4073;42.626;25.386;2023-06-10T01:15:06;7.23;;;6.43;;
8060;SDS011;4073;42.626;25.386;2023-06-10T01:17:33;6.87;;;5.80;;
8060;SDS011;4073;42.626;25.386;2023-06-10T01:20:01;7.40;;;6.63;;
8060;SDS011;4073;42.626;25.386;2023-06-10T01:22:36;11.77;;;8.33;;
8060;SDS011;4073;42.626;25.386;2023-06-10T01:25:02;12.40;;;8.23;;
8060;SDS011;4073;42.626;25.386;2023-06-10T01:27:29;9.37;;;7.30;;
8060;SDS011;4073;42.626;25.386;2023-06-10T01:29:59;7.90;;;6.63;;
8060;SDS011;4073;42.626;25.386;2023-06-10T01:32:33;7.43;;;6.73;;
8060;SDS011;4073;42.626;25.386;2023-06-10T01:37:49;9.37;;;6.90;;
8060;SDS011;4073;42.626;25.386;2023-06-10T01:40:18;7.87;;;5.87;;
8060;SDS011;4073;42.626;25.386;2023-06-10T01:42:43;9.10;;;6.60;;
8060;SDS011;4073;42.626;25.386;2023-06-10T01:45:09;10.63;;;7.03;;
8060;SDS011;4073;42.626;25.386;2023-06-10T01:47:34;18.33;;;9.30;;
8060;SDS011;4073;42.626;25.386;2023-06-10T01:50:00;15.10;;;8.73;;
8060;SDS011;4073;42.626;25.386;2023-06-10T01:52:26;12.13;;;7.53;;
8060;SDS011;4073;42.626;25.386;2023-06-10T01:54:51;15.17;;;8.90;;
8060;SDS011;4073;42.626;25.386;2023-06-10T01:57:16;12.70;;;9.20;;
8060;SDS011;4073;42.626;25.386;2023-06-10T01:59:42;14.57;;;9.10;;
8060;SDS011;4073;42.626;25.386;2023-06-10T02:02:09;12.97;;;8.33;;
8060;SDS011;4073;42.626;25.386;2023-06-10T02:04:35;9.97;;;7.00;;
8060;SDS011;4073;42.626;25.386;2023-06-10T02:07:00;8.07;;;6.97;;
8060;SDS011;4073;42.626;25.386;2023-06-10T02:09:28;8.03;;;6.27;;
8060;SDS011;4073;42.626;25.386;2023-06-10T02:11:54;7.23;;;6.53;;
8060;SDS011;4073;42.626;25.386;2023-06-10T02:14:20;10.97;;;7.17;;
8060;SDS011;4073;42.626;25.386;2023-06-10T02:16:46;11.30;;;7.80;;
8060;SDS011;4073;42.626;25.386;2023-06-10T02:19:11;7.87;;;6.87;;
8060;SDS011;4073;42.626;25.386;2023-06-10T02:21:37;9.73;;;6.93;;
8060;SDS011;4073;42.626;25.386;2023-06-10T02:24:03;10.83;;;7.57;;
8060;SDS011;4073;42.626;25.386;2023-06-10T02:26:29;11.70;;;6.80;;
8060;SDS011;4073;42.626;25.386;2023-06-10T02:28:55;9.47;;;7.33;;
8060;SDS011;4073;42.626;25.386;2023-06-10T02:31:20;10.60;;;7.30;;
8060;SDS011;4073;42.626;25.386;2023-06-10T02:33:46;6.87;;;6.13;;
8060;SDS011;4073;42.626;25.386;2023-06-10T02:36:11;13.00;;;7.43;;
8060;SDS011;4073;42.626;25.386;2023-06-10T02:38:38;9.67;;;8.03;;
8060;SDS011;4073;42.626;25.386;2023-06-10T02:41:05;10.97;;;8.07;;
8060;SDS011;4073;42.626;25.386;2023-06-10T02:43:31;8.13;;;7.33;;
8060;SDS011;4073;42.626;25.386;2023-06-10T02:45:56;9.03;;;7.20;;
8060;SDS011;4073;42.626;25.386;2023-06-10T02:48:25;12.03;;;7.50;;
8060;SDS011;4073;42.626;25.386;2023-06-10T02:50:50;10.10;;;8.03;;
8060;SDS011;4073;42.626;25.386;2023-06-10T02:53:16;10.07;;;9.03;;
8060;SDS011;4073;42.626;25.386;2023-06-10T02:55:41;11.57;;;8.00;;
8060;SDS011;4073;42.626;25.386;2023-06-10T02:58:07;9.10;;;7.07;;
8060;SDS011;4073;42.626;25.386;2023-06-10T03:00:33;11.03;;;6.70;;
8060;SDS011;4073;42.626;25.386;2023-06-10T03:02:58;10.30;;;6.50;;
8060;SDS011;4073;42.626;25.386;2023-06-10T03:05:27;9.03;;;6.70;;
8060;SDS011;4073;42.626;25.386;2023-06-10T03:07:53;7.87;;;6.40;;
8060;SDS011;4073;42.626;25.386;2023-06-10T03:10:19;7.87;;;5.83;;
8060;SDS011;4073;42.626;25.386;2023-06-10T03:12:44;9.30;;;6.23;;
8060;SDS011;4073;42.626;25.386;2023-06-10T03:15:10;9.57;;;6.67;;
8060;SDS011;4073;42.626;25.386;2023-06-10T03:17:35;10.20;;;6.77;;
8060;SDS011;4073;42.626;25.386;2023-06-10T03:20:01;10.33;;;6.67;;
8060;SDS011;4073;42.626;25.386;2023-06-10T03:22:26;9.73;;;6.97;;
8060;SDS011;4073;42.626;25.386;2023-06-10T03:24:53;8.93;;;7.47;;
8060;SDS011;4073;42.626;25.386;2023-06-10T03:27:20;8.60;;;6.60;;
8060;SDS011;4073;42.626;25.386;2023-06-10T03:29:45;11.43;;;7.50;;
8060;SDS011;4073;42.626;25.386;2023-06-10T03:32:10;9.50;;;7.30;;
8060;SDS011;4073;42.626;25.386;2023-06-10T03:34:36;11.43;;;7.03;;
8060;SDS011;4073;42.626;25.386;2023-06-10T03:37:02;9.43;;;7.23;;
8060;SDS011;4073;42.626;25.386;2023-06-10T03:39:28;7.50;;;6.03;;
8060;SDS011;4073;42.626;25.386;2023-06-10T03:41:54;9.13;;;6.93;;
8060;SDS011;4073;42.626;25.386;2023-06-10T03:44:21;8.53;;;7.63;;
8060;SDS011;4073;42.626;25.386;2023-06-10T03:46:47;7.87;;;6.97;;
8060;SDS011;4073;42.626;25.386;2023-06-10T03:49:12;8.47;;;7.00;;
8060;SDS011;4073;42.626;25.386;2023-06-10T03:51:40;9.47;;;7.23;;
8060;SDS011;4073;42.626;25.386;2023-06-10T03:54:05;11.87;;;7.70;;
8060;SDS011;4073;42.626;25.386;2023-06-10T03:56:31;10.13;;;8.17;;
8060;SDS011;4073;42.626;25.386;2023-06-10T03:58:56;9.67;;;7.10;;
8060;SDS011;4073;42.626;25.386;2023-06-10T04:01:22;11.23;;;7.93;;
8060;SDS011;4073;42.626;25.386;2023-06-10T04:03:49;10.00;;;7.77;;
8060;SDS011;4073;42.626;25.386;2023-06-10T04:06:16;9.80;;;7.63;;
8060;SDS011;4073;42.626;25.386;2023-06-10T04:08:42;8.63;;;7.70;;
8060;SDS011;4073;42.626;25.386;2023-06-10T04:11:08;10.50;;;7.53;;
8060;SDS011;4073;42.626;25.386;2023-06-10T04:13:33;8.50;;;7.33;;
8060;SDS011;4073;42.626;25.386;2023-06-10T04:15:59;9.57;;;8.57;;
8060;SDS011;4073;42.626;25.386;2023-06-10T04:18:24;9.73;;;7.50;;
8060;SDS011;4073;42.626;25.386;2023-06-10T04:20:50;8.90;;;8.00;;
8060;SDS011;4073;42.626;25.386;2023-06-10T04:23:16;11.93;;;8.30;;
8060;SDS011;4073;42.626;25.386;2023-06-10T04:25:41;8.50;;;7.63;;
8060;SDS011;4073;42.626;25.386;2023-06-10T04:28:07;10.57;;;7.77;;
8060;SDS011;4073;42.626;25.386;2023-06-10T04:30:32;11.60;;;9.00;;
8060;SDS011;4073;42.626;25.386;2023-06-10T04:32:58;9.13;;;8.07;;
8060;SDS011;4073;42.626;25.386;2023-06-10T04:35:24;11.50;;;7.23;;
8060;SDS011;4073;42.626;25.386;2023-06-10T04:37:51;8.17;;;7.37;;
8060;SDS011;4073;42.626;25.386;2023-06-10T04:40:17;7.40;;;6.60;;
8060;SDS011;4073;42.626;25.386;2023-06-10T04:42:42;8.13;;;6.70;;
8060;SDS011;4073;42.626;25.386;2023-06-10T04:45:08;7.73;;;7.00;;
8060;SDS011;4073;42.626;25.386;2023-06-10T04:47:34;7.83;;;7.03;;
8060;SDS011;4073;42.626;25.386;2023-06-10T04:50:00;8.13;;;7.30;;
8060;SDS011;4073;42.626;25.386;2023-06-10T04:52:26;9.90;;;6.63;;
8060;SDS011;4073;42.626;25.386;2023-06-10T04:54:52;10.80;;;7.40;;
8060;SDS011;4073;42.626;25.386;2023-06-10T04:57:18;8.37;;;7.03;;
8060;SDS011;4073;42.626;25.386;2023-06-10T04:59:45;9.80;;;7.00;;
8060;SDS011;4073;42.626;25.386;2023-06-10T05:02:10;7.93;;;7.17;;
8060;SDS011;4073;42.626;25.386;2023-06-10T05:04:36;9.50;;;7.90;;
8060;SDS011;4073;42.626;25.386;2023-06-10T05:07:01;14.30;;;9.17;;
8060;SDS011;4073;42.626;25.386;2023-06-10T05:09:27;10.73;;;9.60;;
8060;SDS011;4073;42.626;25.386;2023-06-10T05:11:52;10.27;;;8.73;;
8060;SDS011;4073;42.626;25.386;2023-06-10T05:14:21;11.00;;;8.13;;
8060;SDS011;4073;42.626;25.386;2023-06-10T05:16:49;9.63;;;8.77;;
8060;SDS011;4073;42.626;25.386;2023-06-10T05:19:15;8.70;;;7.80;;
8060;SDS011;4073;42.626;25.386;2023-06-10T05:21:44;7.77;;;6.97;;
8060;SDS011;4073;42.626;25.386;2023-06-10T05:24:10;8.80;;;8.00;;
8060;SDS011;4073;42.626;25.386;2023-06-10T05:26:36;7.80;;;7.00;;
8060;SDS011;4073;42.626;25.386;2023-06-10T05:29:05;10.90;;;6.90;;
8060;SDS011;4073;42.626;25.386;2023-06-10T05:31:31;9.77;;;8.13;;
8060;SDS011;4073;42.626;25.386;2023-06-10T05:33:57;7.97;;;7.17;;
8060;SDS011;4073;42.626;25.386;2023-06-10T05:36:22;7.43;;;6.63;;
8060;SDS011;4073;42.626;25.386;2023-06-10T05:38:50;7.27;;;6.47;;
8060;SDS011;4073;42.626;25.386;2023-06-10T05:41:15;9.77;;;8.10;;
8060;SDS011;4073;42.626;25.386;2023-06-10T05:43:41;10.23;;;7.43;;
8060;SDS011;4073;42.626;25.386;2023-06-10T05:46:06;7.47;;;6.73;;
8060;SDS011;4073;42.626;25.386;2023-06-10T05:48:32;9.47;;;7.27;;
8060;SDS011;4073;42.626;25.386;2023-06-10T05:50:57;7.73;;;6.53;;
8060;SDS011;4073;42.626;25.386;2023-06-10T05:53:22;8.53;;;6.77;;
8060;SDS011;4073;42.626;25.386;2023-06-10T05:55:48;7.60;;;6.80;;
8060;SDS011;4073;42.626;25.386;2023-06-10T05:58:14;8.27;;;7.07;;
8060;SDS011;4073;42.626;25.386;2023-06-10T06:00:39;9.33;;;8.43;;
8060;SDS011;4073;42.626;25.386;2023-06-10T06:03:08;8.50;;;7.47;;
8060;SDS011;4073;42.626;25.386;2023-06-10T06:05:34;8.63;;;7.73;;
8060;SDS011;4073;42.626;25.386;2023-06-10T06:08:02;9.10;;;8.30;;
8060;SDS011;4073;42.626;25.386;2023-06-10T06:10:31;9.10;;;8.20;;
8060;SDS011;4073;42.626;25.386;2023-06-10T06:12:57;12.00;;;8.33;;
8060;SDS011;4073;42.626;25.386;2023-06-10T06:15:22;11.90;;;7.73;;
8060;SDS011;4073;42.626;25.386;2023-06-10T06:17:48;8.47;;;7.67;;
8060;SDS011;4073;42.626;25.386;2023-06-10T06:20:13;8.17;;;7.33;;
8060;SDS011;4073;42.626;25.386;2023-06-10T06:22:39;9.47;;;7.47;;
8060;SDS011;4073;42.626;25.386;2023-06-10T06:25:04;10.27;;;8.60;;
8060;SDS011;4073;42.626;25.386;2023-06-10T06:27:30;11.80;;;7.53;;
8060;SDS011;4073;42.626;25.386;2023-06-10T06:29:56;12.27;;;9.10;;
8060;SDS011;4073;42.626;25.386;2023-06-10T06:32:22;10.37;;;7.30;;
8060;SDS011;4073;42.626;25.386;2023-06-10T06:34:49;11.40;;;7.47;;
8060;SDS011;4073;42.626;25.386;2023-06-10T06:37:19;9.10;;;7.03;;
8060;SDS011;4073;42.626;25.386;2023-06-10T06:39:51;10.10;;;7.57;;
8060;SDS011;4073;42.626;25.386;2023-06-10T06:42:18;10.13;;;7.37;;
8060;SDS011;4073;42.626;25.386;2023-06-10T06:44:44;7.73;;;6.70;;
8060;SDS011;4073;42.626;25.386;2023-06-10T06:47:10;8.30;;;6.40;;
8060;SDS011;4073;42.626;25.386;2023-06-10T06:49:35;11.23;;;6.90;;
8060;SDS011;4073;42.626;25.386;2023-06-10T06:52:01;13.57;;;7.57;;
8060;SDS011;4073;42.626;25.386;2023-06-10T06:54:27;9.13;;;6.83;;
8060;SDS011;4073;42.626;25.386;2023-06-10T06:56:52;8.37;;;7.57;;
8060;SDS011;4073;42.626;25.386;2023-06-10T06:59:18;9.53;;;6.73;;
8060;SDS011;4073;42.626;25.386;2023-06-10T07:01:44;8.33;;;7.63;;
8060;SDS011;4073;42.626;25.386;2023-06-10T07:04:11;9.23;;;7.60;;
8060;SDS011;4073;42.626;25.386;2023-06-10T07:06:37;9.90;;;7.73;;
8060;SDS011;4073;42.626;25.386;2023-06-10T07:09:03;8.23;;;7.37;;
8060;SDS011;4073;42.626;25.386;2023-06-10T07:11:29;8.77;;;7.67;;
8060;SDS011;4073;42.626;25.386;2023-06-10T07:13:55;7.87;;;7.13;;
8060;SDS011;4073;42.626;25.386;2023-06-10T07:16:21;8.00;;;6.87;;
8060;SDS011;4073;42.626;25.386;2023-06-10T07:18:46;9.03;;;8.07;;
8060;SDS011;4073;42.626;25.386;2023-06-10T07:21:12;8.53;;;7.73;;
8060;SDS011;4073;42.626;25.386;2023-06-10T07:23:37;7.87;;;6.90;;
8060;SDS011;4073;42.626;25.386;2023-06-10T07:26:07;10.43;;;6.50;;
8060;SDS011;4073;42.626;25.386;2023-06-10T07:28:36;6.60;;;5.87;;
8060;SDS011;4073;42.626;25.386;2023-06-10T07:31:07;7.80;;;6.43;;
8060;SDS011;4073;42.626;25.386;2023-06-10T07:33:33;6.40;;;5.30;;
8060;SDS011;4073;42.626;25.386;2023-06-10T07:35:59;6.00;;;4.80;;
8060;SDS011;4073;42.626;25.386;2023-06-10T07:38:24;6.17;;;5.40;;
8060;SDS011;4073;42.626;25.386;2023-06-10T07:40:51;6.13;;;4.90;;
8060;SDS011;4073;42.626;25.386;2023-06-10T07:43:16;6.70;;;4.30;;
8060;SDS011;4073;42.626;25.386;2023-06-10T07:45:42;6.00;;;5.40;;
8060;SDS011;4073;42.626;25.386;2023-06-10T07:48:08;7.77;;;5.23;;
8060;SDS011;4073;42.626;25.386;2023-06-10T07:50:33;7.70;;;5.57;;
8060;SDS011;4073;42.626;25.386;2023-06-10T07:52:59;6.70;;;4.97;;
8060;SDS011;4073;42.626;25.386;2023-06-10T07:55:25;6.20;;;5.60;;
8060;SDS011;4073;42.626;25.386;2023-06-10T07:57:53;8.90;;;6.10;;
8060;SDS011;4073;42.626;25.386;2023-06-10T08:00:19;6.27;;;5.77;;
8060;SDS011;4073;42.626;25.386;2023-06-10T08:02:45;8.47;;;6.30;;
8060;SDS011;4073;42.626;25.386;2023-06-10T08:05:11;6.53;;;5.93;;
8060;SDS011;4073;42.626;25.386;2023-06-10T08:07:37;6.93;;;6.20;;
8060;SDS011;4073;42.626;25.386;2023-06-10T08:10:02;8.67;;;6.63;;
8060;SDS011;4073;42.626;25.386;2023-06-10T08:12:29;7.60;;;6.23;;
8060;SDS011;4073;42.626;25.386;2023-06-10T08:14:54;6.77;;;5.87;;
8060;SDS011;4073;42.626;25.386;2023-06-10T08:17:20;5.60;;;4.60;;
8060;SDS011;4073;42.626;25.386;2023-06-10T08:19:46;5.97;;;4.90;;
8060;SDS011;4073;42.626;25.386;2023-06-10T08:22:11;5.33;;;4.53;;
8060;SDS011;4073;42.626;25.386;2023-06-10T08:24:37;6.63;;;4.73;;
8060;SDS011;4073;42.626;25.386;2023-06-10T08:27:02;6.57;;;5.50;;
8060;SDS011;4073;42.626;25.386;2023-06-10T08:29:28;6.83;;;5.10;;
8060;SDS011;4073;42.626;25.386;2023-06-10T08:31:56;5.57;;;4.30;;
8060;SDS011;4073;42.626;25.386;2023-06-10T08:34:21;6.17;;;4.57;;
8060;SDS011;4073;42.626;25.386;2023-06-10T08:36:47;5.20;;;4.40;;
8060;SDS011;4073;42.626;25.386;2023-06-10T08:39:12;5.60;;;4.60;;
8060;SDS011;4073;42.626;25.386;2023-06-10T08:41:40;8.03;;;4.40;;
8060;SDS011;4073;42.626;25.386;2023-06-10T08:44:22;6.60;;;5.67;;
8060;SDS011;4073;42.626;25.386;2023-06-10T08:46:52;6.10;;;5.40;;
8060;SDS011;4073;42.626;25.386;2023-06-10T08:49:20;4.97;;;4.47;;
8060;SDS011;4073;42.626;25.386;2023-06-10T08:51:51;4.50;;;4.03;;
8060;SDS011;4073;42.626;25.386;2023-06-10T08:54:25;9.30;;;4.63;;
8060;SDS011;4073;42.626;25.386;2023-06-10T08:56:53;4.40;;;3.83;;
8060;SDS011;4073;42.626;25.386;2023-06-10T08:59:22;9.47;;;5.60;;
8060;SDS011;4073;42.626;25.386;2023-06-10T09:01:50;6.13;;;4.60;;
8060;SDS011;4073;42.626;25.386;2023-06-10T09:04:16;5.07;;;3.87;;
8060;SDS011;4073;42.626;25.386;2023-06-10T09:06:43;5.07;;;3.80;;
8060;SDS011;4073;42.626;25.386;2023-06-10T09:09:11;5.23;;;4.23;;
8060;SDS011;4073;42.626;25.386;2023-06-10T09:11:38;4.23;;;3.83;;
8060;SDS011;4073;42.626;25.386;2023-06-10T09:14:03;4.10;;;3.70;;
8060;SDS011;4073;42.626;25.386;2023-06-10T09:16:29;6.23;;;4.10;;
8060;SDS011;4073;42.626;25.386;2023-06-10T09:18:54;6.87;;;4.13;;
8060;SDS011;4073;42.626;25.386;2023-06-10T09:21:21;8.57;;;3.63;;
8060;SDS011;4073;42.626;25.386;2023-06-10T09:23:48;7.50;;;5.73;;
8060;SDS011;4073;42.626;25.386;2023-06-10T09:26:13;7.57;;;4.73;;
8060;SDS011;4073;42.626;25.386;2023-06-10T09:28:39;6.17;;;4.33;;
8060;SDS011;4073;42.626;25.386;2023-06-10T09:31:07;5.10;;;4.53;;
8060;SDS011;4073;42.626;25.386;2023-06-10T09:33:36;5.07;;;4.57;;
8060;SDS011;4073;42.626;25.386;2023-06-10T09:36:03;5.10;;;3.63;;
8060;SDS011;4073;42.626;25.386;2023-06-10T09:38:29;5.00;;;4.17;;
8060;SDS011;4073;42.626;25.386;2023-06-10T09:40:57;6.80;;;3.77;;
8060;SDS011;4073;42.626;25.386;2023-06-10T09:43:23;5.37;;;3.83;;
8060;SDS011;4073;42.626;25.386;2023-06-10T09:46:03;4.13;;;3.50;;
8060;SDS011;4073;42.626;25.386;2023-06-10T09:48:28;4.03;;;3.73;;
8060;SDS011;4073;42.626;25.386;2023-06-10T09:50:54;5.83;;;5.23;;
8060;SDS011;4073;42.626;25.386;2023-06-10T09:53:20;4.63;;;4.17;;
8060;SDS011;4073;42.626;25.386;2023-06-10T09:55:46;7.77;;;4.10;;
8060;SDS011;4073;42.626;25.386;2023-06-10T09:58:11;5.07;;;4.10;;
8060;SDS011;4073;42.626;25.386;2023-06-10T10:00:36;4.47;;;3.93;;
8060;SDS011;4073;42.626;25.386;2023-06-10T10:03:02;7.23;;;4.40;;
8060;SDS011;4073;42.626;25.386;2023-06-10T10:05:28;6.00;;;4.07;;
8060;SDS011;4073;42.626;25.386;2023-06-10T10:07:54;5.20;;;4.57;;
8060;SDS011;4073;42.626;25.386;2023-06-10T10:10:21;5.07;;;4.17;;
8060;SDS011;4073;42.626;25.386;2023-06-10T10:12:47;5.07;;;4.53;;
8060;SDS011;4073;42.626;25.386;2023-06-10T10:15:14;8.40;;;4.83;;
8060;SDS011;4073;42.626;25.386;2023-06-10T10:18:05;7.23;;;4.37;;
8060;SDS011;4073;42.626;25.386;2023-06-10T10:20:49;6.90;;;4.23;;
8060;SDS011;4073;42.626;25.386;2023-06-10T10:23:21;4.97;;;4.20;;
8060;SDS011;4073;42.626;25.386;2023-06-10T10:25:52;4.47;;;4.07;;
8060;SDS011;4073;42.626;25.386;2023-06-10T10:28:20;7.67;;;4.27;;
8060;SDS011;4073;42.626;25.386;2023-06-10T10:30:50;6.67;;;4.50;;
8060;SDS011;4073;42.626;25.386;2023-06-10T10:36:25;7.20;;;4.07;;
8060;SDS011;4073;42.626;25.386;2023-06-10T10:38:51;5.73;;;4.20;;
8060;SDS011;4073;42.626;25.386;2023-06-10T10:41:16;4.70;;;4.30;;
8060;SDS011;4073;42.626;25.386;2023-06-10T10:43:43;7.47;;;4.37;;
8060;SDS011;4073;42.626;25.386;2023-06-10T10:46:14;4.87;;;3.93;;
8060;SDS011;4073;42.626;25.386;2023-06-10T10:48:41;4.40;;;4.00;;
8060;SDS011;4073;42.626;25.386;2023-06-10T10:51:07;4.53;;;4.00;;
8060;SDS011;4073;42.626;25.386;2023-06-10T10:53:34;4.83;;;4.23;;
8060;SDS011;4073;42.626;25.386;2023-06-10T10:56:18;5.97;;;4.43;;
8060;SDS011;4073;42.626;25.386;2023-06-10T10:59:01;6.30;;;4.67;;
8060;SDS011;4073;42.626;25.386;2023-06-10T11:01:39;5.00;;;4.30;;
8060;SDS011;4073;42.626;25.386;2023-06-10T11:04:11;5.60;;;4.23;;
8060;SDS011;4073;42.626;25.386;2023-06-10T11:06:36;4.80;;;4.40;;
8060;SDS011;4073;42.626;25.386;2023-06-10T11:09:24;4.50;;;4.10;;
8060;SDS011;4073;42.626;25.386;2023-06-10T11:11:51;6.60;;;3.83;;
8060;SDS011;4073;42.626;25.386;2023-06-10T11:14:25;5.17;;;4.30;;
8060;SDS011;4073;42.626;25.386;2023-06-10T11:16:58;5.97;;;4.40;;
8060;SDS011;4073;42.626;25.386;2023-06-10T11:19:37;5.00;;;4.50;;
8060;SDS011;4073;42.626;25.386;2023-06-10T11:22:15;4.90;;;4.47;;
8060;SDS011;4073;42.626;25.386;2023-06-10T11:24:46;5.63;;;3.97;;
8060;SDS011;4073;42.626;25.386;2023-06-10T11:32:30;7.53;;;4.70;;
8060;SDS011;4073;42.626;25.386;2023-06-10T11:34:58;5.37;;;3.97;;
8060;SDS011;4073;42.626;25.386;2023-06-10T11:37:23;4.63;;;4.20;;
8060;SDS011;4073;42.626;25.386;2023-06-10T11:39:53;4.90;;;4.50;;
8060;SDS011;4073;42.626;25.386;2023-06-10T11:42:19;5.70;;;4.80;;
8060;SDS011;4073;42.626;25.386;2023-06-10T11:44:49;6.83;;;5.33;;
8060;SDS011;4073;42.626;25.386;2023-06-10T11:47:16;7.23;;;4.47;;
8060;SDS011;4073;42.626;25.386;2023-06-10T11:49:41;6.20;;;4.23;;
8060;SDS011;4073;42.626;25.386;2023-06-10T11:52:07;11.80;;;5.00;;
8060;SDS011;4073;42.626;25.386;2023-06-10T11:54:32;6.43;;;4.37;;
8060;SDS011;4073;42.626;25.386;2023-06-10T11:56:58;9.40;;;4.63;;
8060;SDS011;4073;42.626;25.386;2023-06-10T11:59:28;7.53;;;4.23;;
8060;SDS011;4073;42.626;25.386;2023-06-10T12:01:55;4.23;;;3.63;;
8060;SDS011;4073;42.626;25.386;2023-06-10T12:04:21;4.80;;;4.30;;
8060;SDS011;4073;42.626;25.386;2023-06-10T12:09:27;6.77;;;4.47;;
8060;SDS011;4073;42.626;25.386;2023-06-10T12:19:55;7.47;;;4.07;;
8060;SDS011;4073;42.626;25.386;2023-06-10T12:22:21;5.93;;;4.23;;
8060;SDS011;4073;42.626;25.386;2023-06-10T12:25:00;5.70;;;4.17;;
8060;SDS011;4073;42.626;25.386;2023-06-10T12:27:28;9.03;;;4.80;;
8060;SDS011;4073;42.626;25.386;2023-06-10T12:29:55;6.57;;;4.53;;
8060;SDS011;4073;42.626;25.386;2023-06-10T12:32:35;5.37;;;4.53;;
8060;SDS011;4073;42.626;25.386;2023-06-10T12:35:09;4.67;;;4.23;;
8060;SDS011;4073;42.626;25.386;2023-06-10T12:37:38;5.30;;;4.20;;
8060;SDS011;4073;42.626;25.386;2023-06-10T12:40:04;6.27;;;4.10;;
8060;SDS011;4073;42.626;25.386;2023-06-10T12:42:31;4.60;;;3.90;;
8060;SDS011;4073;42.626;25.386;2023-06-10T12:45:00;5.73;;;4.17;;
8060;SDS011;4073;42.626;25.386;2023-06-10T12:47:32;5.20;;;4.70;;
8060;SDS011;4073;42.626;25.386;2023-06-10T12:50:03;6.47;;;4.43;;
8060;SDS011;4073;42.626;25.386;2023-06-10T12:52:30;4.93;;;4.37;;
8060;SDS011;4073;42.626;25.386;2023-06-10T12:54:55;11.67;;;7.63;;
8060;SDS011;4073;42.626;25.386;2023-06-10T12:57:21;5.43;;;4.37;;
8060;SDS011;4073;42.626;25.386;2023-06-10T12:59:48;4.87;;;4.03;;
8060;SDS011;4073;42.626;25.386;2023-06-10T13:02:20;6.23;;;4.63;;
8060;SDS011;4073;42.626;25.386;2023-06-10T13:04:48;7.63;;;5.03;;
8060;SDS011;4073;42.626;25.386;2023-06-10T13:07:15;11.90;;;10.23;;
8060;SDS011;4073;42.626;25.386;2023-06-10T13:09:41;5.30;;;4.80;;
8060;SDS011;4073;42.626;25.386;2023-06-10T13:12:07;4.73;;;4.13;;
8060;SDS011;4073;42.626;25.386;2023-06-10T13:14:33;4.97;;;3.90;;
8060;SDS011;4073;42.626;25.386;2023-06-10T13:16:58;6.87;;;4.13;;
8060;SDS011;4073;42.626;25.386;2023-06-10T13:19:24;4.43;;;4.03;;
8060;SDS011;4073;42.626;25.386;2023-06-10T13:21:49;6.67;;;3.90;;
8060;SDS011;4073;42.626;25.386;2023-06-10T13:24:15;4.93;;;4.27;;
8060;SDS011;4073;42.626;25.386;2023-06-10T13:26:40;5.17;;;4.20;;
8060;SDS011;4073;42.626;25.386;2023-06-10T13:29:06;8.93;;;4.57;;
8060;SDS011;4073;42.626;25.386;2023-06-10T13:31:33;4.73;;;4.33;;
8060;SDS011;4073;42.626;25.386;2023-06-10T13:33:58;5.50;;;3.93;;
8060;SDS011;4073;42.626;25.386;2023-06-10T13:36:24;5.63;;;4.30;;
8060;SDS011;4073;42.626;25.386;2023-06-10T13:38:49;5.20;;;3.87;;
8060;SDS011;4073;42.626;25.386;2023-06-10T13:41:15;10.33;;;4.30;;
8060;SDS011;4073;42.626;25.386;2023-06-10T13:43:40;7.20;;;5.27;;
8060;SDS011;4073;42.626;25.386;2023-06-10T13:46:06;7.67;;;4.23;;
8060;SDS011;4073;42.626;25.386;2023-06-10T13:48:32;12.77;;;5.20;;
8060;SDS011;4073;42.626;25.386;2023-06-10T13:50:57;17.50;;;5.67;;
8060;SDS011;4073;42.626;25.386;2023-06-10T13:53:24;5.67;;;3.90;;
8060;SDS011;4073;42.626;25.386;2023-06-10T13:55:50;14.83;;;5.90;;
8060;SDS011;4073;42.626;25.386;2023-06-10T13:58:15;8.37;;;4.40;;
8060;SDS011;4073;42.626;25.386;2023-06-10T14:00:41;4.30;;;3.90;;
8060;SDS011;4073;42.626;25.386;2023-06-10T14:03:06;6.77;;;3.80;;
8060;SDS011;4073;42.626;25.386;2023-06-10T14:05:31;18.40;;;5.83;;
8060;SDS011;4073;42.626;25.386;2023-06-10T14:07:58;9.37;;;4.50;;
8060;SDS011;4073;42.626;25.386;2023-06-10T14:10:24;6.00;;;3.77;;
8060;SDS011;4073;42.626;25.386;2023-06-10T14:12:49;7.20;;;3.80;;
8060;SDS011;4073;42.626;25.386;2023-06-10T14:15:15;4.83;;;3.77;;
8060;SDS011;4073;42.626;25.386;2023-06-10T14:17:41;5.33;;;4.10;;
8060;SDS011;4073;42.626;25.386;2023-06-10T14:20:07;21.17;;;6.00;;
8060;SDS011;4073;42.626;25.386;2023-06-10T14:22:33;19.40;;;5.87;;
8060;SDS011;4073;42.626;25.386;2023-06-10T14:24:58;9.90;;;4.40;;
8060;SDS011;4073;42.626;25.386;2023-06-10T14:27:23;4.37;;;3.97;;
8060;SDS011;4073;42.626;25.386;2023-06-10T14:29:49;5.77;;;4.37;;
8060;SDS011;4073;42.626;25.386;2023-06-10T14:32:14;5.13;;;4.30;;
8060;SDS011;4073;42.626;25.386;2023-06-10T14:34:40;4.80;;;3.90;;
8060;SDS011;4073;42.626;25.386;2023-06-10T14:37:07;13.90;;;5.20;;
8060;SDS011;4073;42.626;25.386;2023-06-10T14:39:32;16.37;;;5.37;;
8060;SDS011;4073;42.626;25.386;2023-06-10T14:41:58;19.07;;;5.17;;
8060;SDS011;4073;42.626;25.386;2023-06-10T14:44:24;7.00;;;3.87;;
8060;SDS011;4073;42.626;25.386;2023-06-10T14:46:49;4.93;;;3.90;;
8060;SDS011;4073;42.626;25.386;2023-06-10T14:49:14;10.87;;;4.53;;
8060;SDS011;4073;42.626;25.386;2023-06-10T14:51:40;5.33;;;4.63;;
8060;SDS011;4073;42.626;25.386;2023-06-10T14:54:06;7.07;;;3.60;;
8060;SDS011;4073;42.626;25.386;2023-06-10T14:56:31;6.67;;;4.70;;
8060;SDS011;4073;42.626;25.386;2023-06-10T14:58:56;5.40;;;4.27;;
8060;SDS011;4073;42.626;25.386;2023-06-10T15:01:22;5.57;;;4.53;;
8060;SDS011;4073;42.626;25.386;2023-06-10T15:03:47;6.20;;;4.57;;
8060;SDS011;4073;42.626;25.386;2023-06-10T15:06:13;7.03;;;4.57;;
8060;SDS011;4073;42.626;25.386;2023-06-10T15:08:42;6.97;;;3.97;;
8060;SDS011;4073;42.626;25.386;2023-06-10T15:11:07;6.00;;;4.80;;
8060;SDS011;4073;42.626;25.386;2023-06-10T15:13:33;5.00;;;4.50;;
8060;SDS011;4073;42.626;25.386;2023-06-10T15:15:58;8.27;;;4.60;;
8060;SDS011;4073;42.626;25.386;2023-06-10T15:18:23;5.33;;;4.23;;
8060;SDS011;4073;42.626;25.386;2023-06-10T15:20:49;4.50;;;4.10;;
8060;SDS011;4073;42.626;25.386;2023-06-10T15:23:14;7.17;;;3.83;;
8060;SDS011;4073;42.626;25.386;2023-06-10T15:25:40;8.03;;;4.60;;